sensor_id;sensor_type;location;lat;lon;timestamp;temperature;humidity
11609;DHT22;5860;52.018;8.536;2023-02-01T00:00:30;4.20;99.90
11609;DHT22;5860;52.018;8.536;2023-02-01T00:02:57;4.20;99.90
11609;DHT22;5860;52.018;8.536;2023-02-01T00:05:24;4.20;99.90
11609;DHT22;5860;52.018;8.536;2023-02-01T00:07:50;4.10;99.90
11609;DHT22;5860;52.018;8.536;2023-02-01T00:10:17;4.20;99.90
11609;DHT22;5860;52.018;8.536;2023-02-01T00:12:44;4.20;99.90
11609;DHT22;5860;52.018;8.536;2023-02-01T00:15:11;4.20;99.90
11609;DHT22;5860;52.018;8.536;2023-02-01T00:17:38;4.10;99.90
11609;DHT22;5860;52.018;8.536;2023-02-01T00:20:05;4.10;99.90
11609;DHT22;5860;52.018;8.536;2023-02-01T00:22:32;4.10;99.90
11609;DHT22;5860;52.018;8.536;2023-02-01T00:24:59;4.10;99.90
11609;DHT22;5860;52.018;8.536;2023-02-01T00:27:26;4.10;99.90
11609;DHT22;5860;52.018;8.536;2023-02-01T00:29:55;4.10;99.90
11609;DHT22;5860;52.018;8.536;2023-02-01T00:32:25;4.20;99.90
11609;DHT22;5860;52.018;8.536;2023-02-01T00:34:52;4.10;99.90
11609;DHT22;5860;52.018;8.536;2023-02-01T00:37:19;4.10;99.90
11609;DHT22;5860;52.018;8.536;2023-02-01T00:39:46;4.10;99.90
11609;DHT22;5860;52.018;8.536;2023-02-01T00:42:12;4.10;99.90
11609;DHT22;5860;52.018;8.536;2023-02-01T00:44:39;4.10;99.90
11609;DHT22;5860;52.018;8.536;2023-02-01T00:47:06;4.10;99.90
11609;DHT22;5860;52.018;8.536;2023-02-01T00:49:33;4.00;99.90
11609;DHT22;5860;52.018;8.536;2023-02-01T00:52:00;4.00;99.90
11609;DHT22;5860;52.018;8.536;2023-02-01T00:54:26;4.00;99.90
11609;DHT22;5860;52.018;8.536;2023-02-01T00:56:54;4.00;99.90
11609;DHT22;5860;52.018;8.536;2023-02-01T00:59:20;4.00;99.90
11609;DHT22;5860;52.018;8.536;2023-02-01T01:01:47;4.00;99.90
11609;DHT22;5860;52.018;8.536;2023-02-01T01:04:14;4.00;99.90
11609;DHT22;5860;52.018;8.536;2023-02-01T01:06:41;3.90;99.90
11609;DHT22;5860;52.018;8.536;2023-02-01T01:09:09;4.00;99.90
11609;DHT22;5860;52.018;8.536;2023-02-01T01:11:37;4.10;99.90
11609;DHT22;5860;52.018;8.536;2023-02-01T01:14:05;4.10;99.90
11609;DHT22;5860;52.018;8.536;2023-02-01T01:16:33;4.00;99.90
11609;DHT22;5860;52.018;8.536;2023-02-01T01:19:00;4.10;99.90
11609;DHT22;5860;52.018;8.536;2023-02-01T01:21:28;4.10;99.90
11609;DHT22;5860;52.018;8.536;2023-02-01T01:23:55;4.10;99.90
11609;DHT22;5860;52.018;8.536;2023-02-01T01:26:24;4.10;99.90
11609;DHT22;5860;52.018;8.536;2023-02-01T01:28:54;4.20;99.90
11609;DHT22;5860;52.018;8.536;2023-02-01T01:31:21;4.10;99.90
11609;DHT22;5860;52.018;8.536;2023-02-01T01:33:50;4.10;99.90
11609;DHT22;5860;52.018;8.536;2023-02-01T01:36:17;4.10;99.90
11609;DHT22;5860;52.018;8.536;2023-02-01T01:38:45;4.20;99.90
11609;DHT22;5860;52.018;8.536;2023-02-01T01:41:15;4.20;99.90
11609;DHT22;5860;52.018;8.536;2023-02-01T01:44:05;4.20;99.90
11609;DHT22;5860;52.018;8.536;2023-02-01T01:46:36;4.20;99.90
11609;DHT22;5860;52.018;8.536;2023-02-01T01:49:16;4.30;99.90
11609;DHT22;5860;52.018;8.536;2023-02-01T01:51:56;4.30;99.90
11609;DHT22;5860;52.018;8.536;2023-02-01T01:54:31;4.20;99.90
11609;DHT22;5860;52.018;8.536;2023-02-01T01:57:09;4.10;99.90
11609;DHT22;5860;52.018;8.536;2023-02-01T01:59:40;4.20;99.90
11609;DHT22;5860;52.018;8.536;2023-02-01T02:02:08;4.20;99.90
11609;DHT22;5860;52.018;8.536;2023-02-01T02:04:36;4.20;99.90
11609;DHT22;5860;52.018;8.536;2023-02-01T02:07:07;4.30;99.90
11609;DHT22;5860;52.018;8.536;2023-02-01T02:09:36;4.30;99.90
11609;DHT22;5860;52.018;8.536;2023-02-01T02:12:05;4.30;99.90
11609;DHT22;5860;52.018;8.536;2023-02-01T02:14:33;4.40;99.90
11609;DHT22;5860;52.018;8.536;2023-02-01T02:25:37;4.40;99.90
11609;DHT22;5860;52.018;8.536;2023-02-01T02:36:27;4.50;99.90
11609;DHT22;5860;52.018;8.536;2023-02-01T02:39:06;4.50;99.90
11609;DHT22;5860;52.018;8.536;2023-02-01T02:45:07;4.60;99.90
11609;DHT22;5860;52.018;8.536;2023-02-01T02:50:52;4.50;99.90
11609;DHT22;5860;52.018;8.536;2023-02-01T02:56:56;4.50;99.90
11609;DHT22;5860;52.018;8.536;2023-02-01T02:59:44;4.50;99.90
11609;DHT22;5860;52.018;8.536;2023-02-01T03:02:31;4.60;99.90
11609;DHT22;5860;52.018;8.536;2023-02-01T03:05:17;4.70;99.90
11609;DHT22;5860;52.018;8.536;2023-02-01T03:12:47;4.70;99.90
11609;DHT22;5860;52.018;8.536;2023-02-01T03:18:03;4.70;99.90
11609;DHT22;5860;52.018;8.536;2023-02-01T03:20:34;4.70;99.90
11609;DHT22;5860;52.018;8.536;2023-02-01T03:23:04;4.70;99.90
11609;DHT22;5860;52.018;8.536;2023-02-01T03:25:34;4.80;99.90
11609;DHT22;5860;52.018;8.536;2023-02-01T03:28:04;4.80;99.90
11609;DHT22;5860;52.018;8.536;2023-02-01T03:30:38;4.80;99.90
11609;DHT22;5860;52.018;8.536;2023-02-01T03:33:13;4.80;99.90
11609;DHT22;5860;52.018;8.536;2023-02-01T03:36:00;4.80;99.90
11609;DHT22;5860;52.018;8.536;2023-02-01T03:41:18;4.80;99.90
11609;DHT22;5860;52.018;8.536;2023-02-01T03:44:04;4.80;99.90
11609;DHT22;5860;52.018;8.536;2023-02-01T03:46:47;4.80;99.90
11609;DHT22;5860;52.018;8.536;2023-02-01T03:49:23;4.80;99.90
11609;DHT22;5860;52.018;8.536;2023-02-01T03:51:52;4.90;99.90
11609;DHT22;5860;52.018;8.536;2023-02-01T03:54:19;4.90;99.90
11609;DHT22;5860;52.018;8.536;2023-02-01T03:56:47;4.80;99.90
11609;DHT22;5860;52.018;8.536;2023-02-01T03:59:15;4.90;99.90
11609;DHT22;5860;52.018;8.536;2023-02-01T04:01:42;4.90;99.90
11609;DHT22;5860;52.018;8.536;2023-02-01T04:04:09;4.90;99.90
11609;DHT22;5860;52.018;8.536;2023-02-01T04:06:36;5.00;99.90
11609;DHT22;5860;52.018;8.536;2023-02-01T04:09:03;4.90;99.90
11609;DHT22;5860;52.018;8.536;2023-02-01T04:11:30;5.00;99.90
11609;DHT22;5860;52.018;8.536;2023-02-01T04:13:57;5.00;99.90
11609;DHT22;5860;52.018;8.536;2023-02-01T04:16:24;5.00;99.90
11609;DHT22;5860;52.018;8.536;2023-02-01T04:18:51;5.10;99.90
11609;DHT22;5860;52.018;8.536;2023-02-01T04:21:17;5.00;99.90
11609;DHT22;5860;52.018;8.536;2023-02-01T04:23:44;5.00;99.90
11609;DHT22;5860;52.018;8.536;2023-02-01T04:26:10;5.00;99.90
11609;DHT22;5860;52.018;8.536;2023-02-01T04:28:37;5.10;99.90
11609;DHT22;5860;52.018;8.536;2023-02-01T04:31:04;5.10;99.90
11609;DHT22;5860;52.018;8.536;2023-02-01T04:33:31;5.00;99.90
11609;DHT22;5860;52.018;8.536;2023-02-01T04:35:58;5.10;99.90
11609;DHT22;5860;52.018;8.536;2023-02-01T04:38:25;5.10;99.90
11609;DHT22;5860;52.018;8.536;2023-02-01T04:40:52;5.10;99.90
11609;DHT22;5860;52.018;8.536;2023-02-01T04:43:19;5.20;99.90
11609;DHT22;5860;52.018;8.536;2023-02-01T04:45:50;5.20;99.90
11609;DHT22;5860;52.018;8.536;2023-02-01T04:48:18;5.10;99.90
11609;DHT22;5860;52.018;8.536;2023-02-01T04:50:45;5.00;99.90
11609;DHT22;5860;52.018;8.536;2023-02-01T04:53:17;4.90;99.90
11609;DHT22;5860;52.018;8.536;2023-02-01T04:55:44;4.90;99.90
11609;DHT22;5860;52.018;8.536;2023-02-01T04:58:11;4.80;99.90
11609;DHT22;5860;52.018;8.536;2023-02-01T05:00:38;4.80;99.90
11609;DHT22;5860;52.018;8.536;2023-02-01T05:03:05;4.80;99.90
11609;DHT22;5860;52.018;8.536;2023-02-01T05:05:32;4.80;99.90
11609;DHT22;5860;52.018;8.536;2023-02-01T05:07:59;4.80;99.90
11609;DHT22;5860;52.018;8.536;2023-02-01T05:10:26;4.80;99.90
11609;DHT22;5860;52.018;8.536;2023-02-01T05:12:53;4.70;99.90
11609;DHT22;5860;52.018;8.536;2023-02-01T05:15:38;4.70;99.90
11609;DHT22;5860;52.018;8.536;2023-02-01T05:18:05;4.70;99.90
11609;DHT22;5860;52.018;8.536;2023-02-01T05:20:32;4.70;99.90
11609;DHT22;5860;52.018;8.536;2023-02-01T05:22:59;4.70;99.90
11609;DHT22;5860;52.018;8.536;2023-02-01T05:25:26;4.70;99.90
11609;DHT22;5860;52.018;8.536;2023-02-01T05:27:53;4.60;99.90
11609;DHT22;5860;52.018;8.536;2023-02-01T05:30:20;4.70;99.90
11609;DHT22;5860;52.018;8.536;2023-02-01T05:32:51;4.60;99.90
11609;DHT22;5860;52.018;8.536;2023-02-01T05:35:19;4.60;99.90
11609;DHT22;5860;52.018;8.536;2023-02-01T05:37:46;4.60;99.90
11609;DHT22;5860;52.018;8.536;2023-02-01T05:40:13;4.60;99.90
11609;DHT22;5860;52.018;8.536;2023-02-01T05:42:40;4.60;99.90
11609;DHT22;5860;52.018;8.536;2023-02-01T05:45:07;4.60;99.90
11609;DHT22;5860;52.018;8.536;2023-02-01T05:47:34;4.60;99.90
11609;DHT22;5860;52.018;8.536;2023-02-01T05:50:01;4.60;99.90
11609;DHT22;5860;52.018;8.536;2023-02-01T05:52:27;4.60;99.90
11609;DHT22;5860;52.018;8.536;2023-02-01T05:54:54;4.70;99.90
11609;DHT22;5860;52.018;8.536;2023-02-01T05:57:21;4.70;99.90
11609;DHT22;5860;52.018;8.536;2023-02-01T05:59:48;4.70;99.90
11609;DHT22;5860;52.018;8.536;2023-02-01T06:02:16;4.70;99.90
11609;DHT22;5860;52.018;8.536;2023-02-01T06:04:43;4.70;99.90
11609;DHT22;5860;52.018;8.536;2023-02-01T06:07:10;4.60;99.90
11609;DHT22;5860;52.018;8.536;2023-02-01T06:09:37;4.70;99.90
11609;DHT22;5860;52.018;8.536;2023-02-01T06:12:04;4.70;99.90
11609;DHT22;5860;52.018;8.536;2023-02-01T06:14:31;4.80;99.90
11609;DHT22;5860;52.018;8.536;2023-02-01T06:16:58;4.80;99.90
11609;DHT22;5860;52.018;8.536;2023-02-01T06:19:25;4.80;99.90
11609;DHT22;5860;52.018;8.536;2023-02-01T06:21:52;4.80;99.90
11609;DHT22;5860;52.018;8.536;2023-02-01T06:24:19;4.90;99.90
11609;DHT22;5860;52.018;8.536;2023-02-01T06:26:46;4.90;99.90
11609;DHT22;5860;52.018;8.536;2023-02-01T06:29:13;4.90;99.90
11609;DHT22;5860;52.018;8.536;2023-02-01T06:31:40;4.90;99.90
11609;DHT22;5860;52.018;8.536;2023-02-01T06:34:07;4.90;99.90
11609;DHT22;5860;52.018;8.536;2023-02-01T06:36:33;4.90;99.90
11609;DHT22;5860;52.018;8.536;2023-02-01T06:39:00;5.00;99.90
11609;DHT22;5860;52.018;8.536;2023-02-01T06:41:27;4.90;99.90
11609;DHT22;5860;52.018;8.536;2023-02-01T06:43:55;5.00;99.90
11609;DHT22;5860;52.018;8.536;2023-02-01T06:46:22;5.00;99.90
11609;DHT22;5860;52.018;8.536;2023-02-01T06:48:49;5.00;99.90
11609;DHT22;5860;52.018;8.536;2023-02-01T06:51:22;5.00;99.90
11609;DHT22;5860;52.018;8.536;2023-02-01T06:53:50;5.00;99.90
11609;DHT22;5860;52.018;8.536;2023-02-01T06:56:17;5.10;99.90
11609;DHT22;5860;52.018;8.536;2023-02-01T06:58:44;5.10;99.90
11609;DHT22;5860;52.018;8.536;2023-02-01T07:01:12;5.00;99.90
11609;DHT22;5860;52.018;8.536;2023-02-01T07:03:40;5.10;99.90
11609;DHT22;5860;52.018;8.536;2023-02-01T07:06:08;5.10;99.90
11609;DHT22;5860;52.018;8.536;2023-02-01T07:08:36;5.10;99.90
11609;DHT22;5860;52.018;8.536;2023-02-01T07:11:06;5.10;99.90
11609;DHT22;5860;52.018;8.536;2023-02-01T07:13:34;5.10;99.90
11609;DHT22;5860;52.018;8.536;2023-02-01T07:16:07;5.10;99.90
11609;DHT22;5860;52.018;8.536;2023-02-01T07:18:35;5.20;99.90
11609;DHT22;5860;52.018;8.536;2023-02-01T07:21:02;5.10;99.90
11609;DHT22;5860;52.018;8.536;2023-02-01T07:23:29;5.30;99.90
11609;DHT22;5860;52.018;8.536;2023-02-01T07:25:57;5.30;99.90
11609;DHT22;5860;52.018;8.536;2023-02-01T07:28:25;5.20;99.90
11609;DHT22;5860;52.018;8.536;2023-02-01T07:30:52;5.20;99.90
11609;DHT22;5860;52.018;8.536;2023-02-01T07:33:21;5.10;99.90
11609;DHT22;5860;52.018;8.536;2023-02-01T07:35:49;5.10;99.90
11609;DHT22;5860;52.018;8.536;2023-02-01T07:38:17;5.10;99.90
11609;DHT22;5860;52.018;8.536;2023-02-01T07:40:44;5.20;99.90
11609;DHT22;5860;52.018;8.536;2023-02-01T07:43:11;5.10;99.90
11609;DHT22;5860;52.018;8.536;2023-02-01T07:45:38;5.20;99.90
11609;DHT22;5860;52.018;8.536;2023-02-01T07:48:04;5.20;99.90
11609;DHT22;5860;52.018;8.536;2023-02-01T07:50:31;5.20;99.90
11609;DHT22;5860;52.018;8.536;2023-02-01T07:53:00;5.20;99.90
11609;DHT22;5860;52.018;8.536;2023-02-01T07:55:27;5.30;99.90
11609;DHT22;5860;52.018;8.536;2023-02-01T07:57:57;5.20;99.90
11609;DHT22;5860;52.018;8.536;2023-02-01T08:00:25;5.20;99.90
11609;DHT22;5860;52.018;8.536;2023-02-01T08:03:10;5.30;99.90
11609;DHT22;5860;52.018;8.536;2023-02-01T08:05:37;5.30;99.90
11609;DHT22;5860;52.018;8.536;2023-02-01T08:08:04;5.30;99.90
11609;DHT22;5860;52.018;8.536;2023-02-01T08:10:31;5.30;99.90
11609;DHT22;5860;52.018;8.536;2023-02-01T08:12:59;5.30;99.90
11609;DHT22;5860;52.018;8.536;2023-02-01T08:15:27;5.40;99.90
11609;DHT22;5860;52.018;8.536;2023-02-01T08:17:54;5.30;99.90
11609;DHT22;5860;52.018;8.536;2023-02-01T08:20:22;5.40;99.90
11609;DHT22;5860;52.018;8.536;2023-02-01T08:22:50;5.40;99.90
11609;DHT22;5860;52.018;8.536;2023-02-01T08:25:20;5.60;99.90
11609;DHT22;5860;52.018;8.536;2023-02-01T08:27:47;5.60;99.90
11609;DHT22;5860;52.018;8.536;2023-02-01T08:30:14;5.70;99.90
11609;DHT22;5860;52.018;8.536;2023-02-01T08:32:41;5.60;99.90
11609;DHT22;5860;52.018;8.536;2023-02-01T08:35:08;5.60;99.90
11609;DHT22;5860;52.018;8.536;2023-02-01T08:37:35;5.60;99.90
11609;DHT22;5860;52.018;8.536;2023-02-01T08:40:04;5.60;99.90
11609;DHT22;5860;52.018;8.536;2023-02-01T08:42:32;5.60;99.90
11609;DHT22;5860;52.018;8.536;2023-02-01T08:45:19;5.60;99.90
11609;DHT22;5860;52.018;8.536;2023-02-01T08:47:46;5.50;99.90
11609;DHT22;5860;52.018;8.536;2023-02-01T08:50:14;5.50;99.90
11609;DHT22;5860;52.018;8.536;2023-02-01T08:52:41;5.50;99.90
11609;DHT22;5860;52.018;8.536;2023-02-01T08:55:10;5.60;99.90
11609;DHT22;5860;52.018;8.536;2023-02-01T08:57:37;5.60;99.90
11609;DHT22;5860;52.018;8.536;2023-02-01T09:00:05;5.70;99.90
11609;DHT22;5860;52.018;8.536;2023-02-01T09:02:32;5.70;99.90
11609;DHT22;5860;52.018;8.536;2023-02-01T09:05:00;5.80;99.90
11609;DHT22;5860;52.018;8.536;2023-02-01T09:07:27;5.70;99.90
11609;DHT22;5860;52.018;8.536;2023-02-01T09:09:54;5.80;99.90
11609;DHT22;5860;52.018;8.536;2023-02-01T09:12:23;5.80;99.90
11609;DHT22;5860;52.018;8.536;2023-02-01T09:14:50;5.90;99.90
11609;DHT22;5860;52.018;8.536;2023-02-01T09:17:17;6.10;99.90
11609;DHT22;5860;52.018;8.536;2023-02-01T09:19:45;6.10;99.90
11609;DHT22;5860;52.018;8.536;2023-02-01T09:22:12;6.10;99.90
11609;DHT22;5860;52.018;8.536;2023-02-01T09:24:38;6.10;99.90
11609;DHT22;5860;52.018;8.536;2023-02-01T09:27:06;6.10;99.90
11609;DHT22;5860;52.018;8.536;2023-02-01T09:29:33;6.20;99.90
11609;DHT22;5860;52.018;8.536;2023-02-01T09:32:00;6.10;99.90
11609;DHT22;5860;52.018;8.536;2023-02-01T09:34:30;6.10;99.90
11609;DHT22;5860;52.018;8.536;2023-02-01T09:36:57;6.10;99.90
11609;DHT22;5860;52.018;8.536;2023-02-01T09:39:24;6.10;99.90
11609;DHT22;5860;52.018;8.536;2023-02-01T09:47:23;6.20;99.90
11609;DHT22;5860;52.018;8.536;2023-02-01T09:52:52;6.20;99.90
11609;DHT22;5860;52.018;8.536;2023-02-01T09:55:34;6.10;99.90
11609;DHT22;5860;52.018;8.536;2023-02-01T09:58:12;6.10;99.90
11609;DHT22;5860;52.018;8.536;2023-02-01T10:00:50;6.20;99.90
11609;DHT22;5860;52.018;8.536;2023-02-01T10:03:19;6.30;99.90
11609;DHT22;5860;52.018;8.536;2023-02-01T10:22:43;6.80;99.90
11609;DHT22;5860;52.018;8.536;2023-02-01T10:25:36;6.70;99.90
11609;DHT22;5860;52.018;8.536;2023-02-01T10:28:04;6.70;99.90
11609;DHT22;5860;52.018;8.536;2023-02-01T10:30:39;6.50;99.90
11609;DHT22;5860;52.018;8.536;2023-02-01T10:33:17;6.60;99.90
11609;DHT22;5860;52.018;8.536;2023-02-01T10:35:45;6.60;99.90
11609;DHT22;5860;52.018;8.536;2023-02-01T10:38:28;6.60;99.90
11609;DHT22;5860;52.018;8.536;2023-02-01T10:41:02;6.50;99.90
11609;DHT22;5860;52.018;8.536;2023-02-01T10:43:31;6.50;99.90
11609;DHT22;5860;52.018;8.536;2023-02-01T10:45:58;6.40;99.90
11609;DHT22;5860;52.018;8.536;2023-02-01T10:48:25;6.40;99.90
11609;DHT22;5860;52.018;8.536;2023-02-01T10:51:06;6.40;99.90
11609;DHT22;5860;52.018;8.536;2023-02-01T10:56:49;6.50;99.90
11609;DHT22;5860;52.018;8.536;2023-02-01T10:59:24;6.60;99.90
11609;DHT22;5860;52.018;8.536;2023-02-01T11:01:59;6.60;99.90
11609;DHT22;5860;52.018;8.536;2023-02-01T11:04:28;6.50;99.90
11609;DHT22;5860;52.018;8.536;2023-02-01T11:07:24;6.50;99.90
11609;DHT22;5860;52.018;8.536;2023-02-01T11:09:54;6.40;99.90
11609;DHT22;5860;52.018;8.536;2023-02-01T11:12:34;6.40;99.90
11609;DHT22;5860;52.018;8.536;2023-02-01T11:15:20;6.40;99.90
11609;DHT22;5860;52.018;8.536;2023-02-01T11:17:50;6.40;99.90
11609;DHT22;5860;52.018;8.536;2023-02-01T11:22:59;6.40;99.90
11609;DHT22;5860;52.018;8.536;2023-02-01T11:25:26;6.40;99.90
11609;DHT22;5860;52.018;8.536;2023-02-01T11:27:55;6.50;99.90
11609;DHT22;5860;52.018;8.536;2023-02-01T11:30:36;6.50;99.90
11609;DHT22;5860;52.018;8.536;2023-02-01T11:33:05;6.50;99.90
11609;DHT22;5860;52.018;8.536;2023-02-01T11:35:37;6.40;99.90
11609;DHT22;5860;52.018;8.536;2023-02-01T11:38:31;6.40;99.90
11609;DHT22;5860;52.018;8.536;2023-02-01T11:41:26;6.40;99.90
11609;DHT22;5860;52.018;8.536;2023-02-01T11:43:54;6.50;99.90
11609;DHT22;5860;52.018;8.536;2023-02-01T11:46:33;6.40;99.90
11609;DHT22;5860;52.018;8.536;2023-02-01T11:49:20;6.50;99.90
11609;DHT22;5860;52.018;8.536;2023-02-01T11:57:46;6.40;99.90
11609;DHT22;5860;52.018;8.536;2023-02-01T12:00:37;6.40;99.90
11609;DHT22;5860;52.018;8.536;2023-02-01T12:12:06;6.00;99.90
11609;DHT22;5860;52.018;8.536;2023-02-01T12:23:06;5.60;99.90
11609;DHT22;5860;52.018;8.536;2023-02-01T12:42:43;5.50;99.90
11609;DHT22;5860;52.018;8.536;2023-02-01T12:48:36;5.40;99.90
11609;DHT22;5860;52.018;8.536;2023-02-01T12:51:12;5.30;99.90
11609;DHT22;5860;52.018;8.536;2023-02-01T12:56:31;5.20;99.90
11609;DHT22;5860;52.018;8.536;2023-02-01T12:59:04;5.20;99.90
11609;DHT22;5860;52.018;8.536;2023-02-01T13:04:39;5.10;99.90
11609;DHT22;5860;52.018;8.536;2023-02-01T13:07:31;5.10;99.90
11609;DHT22;5860;52.018;8.536;2023-02-01T13:10:15;5.10;99.90
11609;DHT22;5860;52.018;8.536;2023-02-01T13:12:53;5.20;99.90
11609;DHT22;5860;52.018;8.536;2023-02-01T13:17:49;5.30;99.90
11609;DHT22;5860;52.018;8.536;2023-02-01T13:20:55;5.30;99.90
11609;DHT22;5860;52.018;8.536;2023-02-01T13:23:30;5.30;99.90
11609;DHT22;5860;52.018;8.536;2023-02-01T13:25:58;5.40;99.90
11609;DHT22;5860;52.018;8.536;2023-02-01T13:28:47;5.30;99.90
11609;DHT22;5860;52.018;8.536;2023-02-01T13:31:49;5.40;99.90
11609;DHT22;5860;52.018;8.536;2023-02-01T13:40:31;5.40;99.90
11609;DHT22;5860;52.018;8.536;2023-02-01T13:43:24;5.40;99.90
11609;DHT22;5860;52.018;8.536;2023-02-01T13:45:56;5.60;99.90
11609;DHT22;5860;52.018;8.536;2023-02-01T13:48:33;5.60;99.90
11609;DHT22;5860;52.018;8.536;2023-02-01T13:51:02;5.60;99.90
11609;DHT22;5860;52.018;8.536;2023-02-01T13:53:32;5.60;99.90
11609;DHT22;5860;52.018;8.536;2023-02-01T13:56:18;5.70;99.90
11609;DHT22;5860;52.018;8.536;2023-02-01T13:58:48;5.70;99.90
11609;DHT22;5860;52.018;8.536;2023-02-01T14:03:56;5.70;99.90
11609;DHT22;5860;52.018;8.536;2023-02-01T14:09:33;5.90;99.90
11609;DHT22;5860;52.018;8.536;2023-02-01T14:15:27;5.80;99.90
11609;DHT22;5860;52.018;8.536;2023-02-01T14:17:54;5.70;99.90
11609;DHT22;5860;52.018;8.536;2023-02-01T14:20:51;5.70;99.90
11609;DHT22;5860;52.018;8.536;2023-02-01T14:24:04;5.60;99.90
11609;DHT22;5860;52.018;8.536;2023-02-01T14:32:18;5.20;99.90
11609;DHT22;5860;52.018;8.536;2023-02-01T14:42:24;4.80;99.90
11609;DHT22;5860;52.018;8.536;2023-02-01T14:44:54;4.70;99.90
11609;DHT22;5860;52.018;8.536;2023-02-01T14:47:28;4.70;99.90
11609;DHT22;5860;52.018;8.536;2023-02-01T14:50:13;4.70;99.90
11609;DHT22;5860;52.018;8.536;2023-02-01T14:55:51;4.80;99.90
11609;DHT22;5860;52.018;8.536;2023-02-01T15:04:13;4.70;99.90
11609;DHT22;5860;52.018;8.536;2023-02-01T15:06:55;4.80;99.90
11609;DHT22;5860;52.018;8.536;2023-02-01T15:09:31;4.80;99.90
11609;DHT22;5860;52.018;8.536;2023-02-01T15:14:41;5.00;99.90
11609;DHT22;5860;52.018;8.536;2023-02-01T15:17:31;5.10;99.90
11609;DHT22;5860;52.018;8.536;2023-02-01T15:20:43;5.10;99.90
11609;DHT22;5860;52.018;8.536;2023-02-01T15:23:18;5.20;99.90
11609;DHT22;5860;52.018;8.536;2023-02-01T15:25:46;5.30;99.90
11609;DHT22;5860;52.018;8.536;2023-02-01T15:28:14;5.40;99.90
11609;DHT22;5860;52.018;8.536;2023-02-01T15:30:57;5.40;99.90
11609;DHT22;5860;52.018;8.536;2023-02-01T15:33:26;5.40;99.90
11609;DHT22;5860;52.018;8.536;2023-02-01T15:36:18;5.50;99.90
11609;DHT22;5860;52.018;8.536;2023-02-01T15:38:45;5.40;99.90
11609;DHT22;5860;52.018;8.536;2023-02-01T15:43:47;5.30;99.90
11609;DHT22;5860;52.018;8.536;2023-02-01T15:46:22;5.30;99.90
11609;DHT22;5860;52.018;8.536;2023-02-01T15:48:54;5.30;99.90
11609;DHT22;5860;52.018;8.536;2023-02-01T15:51:27;5.10;99.90
11609;DHT22;5860;52.018;8.536;2023-02-01T15:54:01;5.10;99.90
11609;DHT22;5860;52.018;8.536;2023-02-01T15:56:34;5.10;99.90
11609;DHT22;5860;52.018;8.536;2023-02-01T15:59:04;5.00;99.90
11609;DHT22;5860;52.018;8.536;2023-02-01T16:01:37;4.90;99.90
11609;DHT22;5860;52.018;8.536;2023-02-01T16:04:22;4.90;99.90
11609;DHT22;5860;52.018;8.536;2023-02-01T16:06:54;5.00;99.90
11609;DHT22;5860;52.018;8.536;2023-02-01T16:09:24;5.00;99.90
11609;DHT22;5860;52.018;8.536;2023-02-01T16:12:01;5.00;99.90
11609;DHT22;5860;52.018;8.536;2023-02-01T16:14:28;5.10;99.90
11609;DHT22;5860;52.018;8.536;2023-02-01T16:16:57;5.10;99.90
11609;DHT22;5860;52.018;8.536;2023-02-01T16:19:24;5.10;99.90
11609;DHT22;5860;52.018;8.536;2023-02-01T16:21:55;5.10;99.90
11609;DHT22;5860;52.018;8.536;2023-02-01T16:24:22;5.10;99.90
11609;DHT22;5860;52.018;8.536;2023-02-01T16:26:51;5.10;99.90
11609;DHT22;5860;52.018;8.536;2023-02-01T16:29:18;5.20;99.90
11609;DHT22;5860;52.018;8.536;2023-02-01T16:31:48;5.20;99.90
11609;DHT22;5860;52.018;8.536;2023-02-01T16:34:16;5.30;99.90
11609;DHT22;5860;52.018;8.536;2023-02-01T16:36:47;5.40;99.90
11609;DHT22;5860;52.018;8.536;2023-02-01T16:39:22;5.40;99.90
11609;DHT22;5860;52.018;8.536;2023-02-01T16:41:49;5.40;99.90
11609;DHT22;5860;52.018;8.536;2023-02-01T16:44:17;5.40;99.90
11609;DHT22;5860;52.018;8.536;2023-02-01T16:46:46;5.50;99.90
11609;DHT22;5860;52.018;8.536;2023-02-01T16:49:23;5.50;99.90
11609;DHT22;5860;52.018;8.536;2023-02-01T16:51:56;5.50;99.90
11609;DHT22;5860;52.018;8.536;2023-02-01T16:54:27;5.40;99.90
11609;DHT22;5860;52.018;8.536;2023-02-01T16:56:54;5.30;99.90
11609;DHT22;5860;52.018;8.536;2023-02-01T16:59:21;5.30;99.90
11609;DHT22;5860;52.018;8.536;2023-02-01T17:01:48;5.40;99.90
11609;DHT22;5860;52.018;8.536;2023-02-01T17:04:17;5.40;99.90
11609;DHT22;5860;52.018;8.536;2023-02-01T17:06:47;5.30;99.90
11609;DHT22;5860;52.018;8.536;2023-02-01T17:09:15;5.30;99.90
11609;DHT22;5860;52.018;8.536;2023-02-01T17:11:42;5.30;99.90
11609;DHT22;5860;52.018;8.536;2023-02-01T17:14:16;5.30;99.90
11609;DHT22;5860;52.018;8.536;2023-02-01T17:16:45;5.20;99.90
11609;DHT22;5860;52.018;8.536;2023-02-01T17:19:15;5.30;99.90
11609;DHT22;5860;52.018;8.536;2023-02-01T17:21:47;5.10;99.90
11609;DHT22;5860;52.018;8.536;2023-02-01T17:24:27;5.00;99.90
11609;DHT22;5860;52.018;8.536;2023-02-01T17:27:12;5.00;99.90
11609;DHT22;5860;52.018;8.536;2023-02-01T17:29:39;5.00;99.90
11609;DHT22;5860;52.018;8.536;2023-02-01T17:32:22;5.00;99.90
11609;DHT22;5860;52.018;8.536;2023-02-01T17:34:51;5.10;99.90
11609;DHT22;5860;52.018;8.536;2023-02-01T17:37:28;5.10;99.90
11609;DHT22;5860;52.018;8.536;2023-02-01T17:39:56;5.00;99.90
11609;DHT22;5860;52.018;8.536;2023-02-01T17:42:28;5.20;99.90
11609;DHT22;5860;52.018;8.536;2023-02-01T17:44:57;5.20;99.90
11609;DHT22;5860;52.018;8.536;2023-02-01T17:47:25;5.20;99.90
11609;DHT22;5860;52.018;8.536;2023-02-01T17:49:52;5.10;99.90
11609;DHT22;5860;52.018;8.536;2023-02-01T17:52:26;5.00;99.90
11609;DHT22;5860;52.018;8.536;2023-02-01T17:54:54;4.90;99.90
11609;DHT22;5860;52.018;8.536;2023-02-01T17:57:22;4.90;99.90
11609;DHT22;5860;52.018;8.536;2023-02-01T17:59:48;5.00;99.90
11609;DHT22;5860;52.018;8.536;2023-02-01T18:02:20;4.90;99.90
11609;DHT22;5860;52.018;8.536;2023-02-01T18:04:48;4.90;99.90
11609;DHT22;5860;52.018;8.536;2023-02-01T18:07:16;5.10;99.90
11609;DHT22;5860;52.018;8.536;2023-02-01T18:09:43;5.00;99.90
11609;DHT22;5860;52.018;8.536;2023-02-01T18:12:28;5.00;99.90
11609;DHT22;5860;52.018;8.536;2023-02-01T18:14:57;4.80;99.90
11609;DHT22;5860;52.018;8.536;2023-02-01T18:17:25;4.90;99.90
11609;DHT22;5860;52.018;8.536;2023-02-01T18:19:53;4.90;99.90
11609;DHT22;5860;52.018;8.536;2023-02-01T18:22:22;4.90;99.90
11609;DHT22;5860;52.018;8.536;2023-02-01T18:24:50;4.80;99.90
11609;DHT22;5860;52.018;8.536;2023-02-01T18:27:17;4.80;99.90
11609;DHT22;5860;52.018;8.536;2023-02-01T18:29:44;4.80;99.90
11609;DHT22;5860;52.018;8.536;2023-02-01T18:32:14;4.80;99.90
11609;DHT22;5860;52.018;8.536;2023-02-01T18:34:41;4.80;99.90
11609;DHT22;5860;52.018;8.536;2023-02-01T18:37:09;4.80;99.90
11609;DHT22;5860;52.018;8.536;2023-02-01T18:39:36;4.80;99.90
11609;DHT22;5860;52.018;8.536;2023-02-01T18:42:05;4.70;99.90
11609;DHT22;5860;52.018;8.536;2023-02-01T18:44:32;4.70;99.90
11609;DHT22;5860;52.018;8.536;2023-02-01T18:46:58;4.80;99.90
11609;DHT22;5860;52.018;8.536;2023-02-01T18:49:26;4.90;99.90
11609;DHT22;5860;52.018;8.536;2023-02-01T18:51:53;4.80;99.90
11609;DHT22;5860;52.018;8.536;2023-02-01T18:54:20;4.80;99.90
11609;DHT22;5860;52.018;8.536;2023-02-01T18:56:47;4.80;99.90
11609;DHT22;5860;52.018;8.536;2023-02-01T18:59:14;4.80;99.90
11609;DHT22;5860;52.018;8.536;2023-02-01T19:01:42;4.70;99.90
11609;DHT22;5860;52.018;8.536;2023-02-01T19:04:11;4.70;99.90
11609;DHT22;5860;52.018;8.536;2023-02-01T19:06:51;4.70;99.90
11609;DHT22;5860;52.018;8.536;2023-02-01T19:09:18;4.80;99.90